Time;durP1;ratioP1;P1;durP2;ratioP2;P2;SDS_P1;SDS_P2;PMS_P1;PMS_P2;Temp;Humidity;BMP_temperature;BMP_pressure;BME280_temperature;BME280_humidity;BME280_pressure;Samples;Min_cycle;Max_cycle;Signal;HPM_P1;HPM_P2
2021/10/03 00:01:12;;;;;;;4.78;3.25;;;18.30;92.60;;;;;;4971492;28;20057;-75
2021/10/03 00:03:40;;;;;;;9.13;4.15;;;18.30;92.60;;;;;;4971869;28;20023;-74
2021/10/03 00:06:08;;;;;;;5.78;3.35;;;18.30;92.60;;;;;;4971650;28;20031;-74
2021/10/03 00:08:34;;;;;;;6.55;3.97;;;18.40;92.70;;;;;;4970130;28;20031;-74
2021/10/03 00:11:00;;;;;;;8.05;3.45;;;18.40;92.70;;;;;;4935288;28;1067192;-75
2021/10/03 00:13:26;;;;;;;8.45;3.88;;;18.40;92.70;;;;;;4972248;28;20474;-76
2021/10/03 00:15:53;;;;;;;7.00;3.45;;;18.40;92.70;;;;;;4971936;28;20023;-74
2021/10/03 00:18:19;;;;;;;5.72;3.40;;;18.40;92.80;;;;;;4972245;28;20458;-75
2021/10/03 00:20:45;;;;;;;5.75;3.45;;;18.40;92.80;;;;;;4971603;28;20369;-75
2021/10/03 00:23:11;;;;;;;6.47;3.72;;;18.40;92.80;;;;;;4972065;28;20251;-74
2021/10/03 00:25:37;;;;;;;5.32;3.33;;;18.50;92.70;;;;;;4972333;28;20126;-75
2021/10/03 00:28:05;;;;;;;8.20;4.07;;;18.60;92.80;;;;;;4971988;28;20465;-75
2021/10/03 00:30:31;;;;;;;7.70;3.33;;;18.60;92.80;;;;;;4971413;28;20074;-75
2021/10/03 00:32:57;;;;;;;7.70;3.78;;;18.60;92.70;;;;;;4972573;28;20078;-75
2021/10/03 00:35:24;;;;;;;5.75;3.38;;;18.60;92.70;;;;;;4972469;28;20027;-75
2021/10/03 00:37:49;;;;;;;6.88;3.83;;;18.70;92.70;;;;;;4972426;28;20034;-75
2021/10/03 00:40:15;;;;;;;5.50;3.75;;;18.70;92.60;;;;;;4972160;28;20034;-75
2021/10/03 00:42:42;;;;;;;6.85;3.22;;;18.80;92.70;;;;;;4972670;28;20038;-75
2021/10/03 00:45:10;;;;;;;10.15;3.97;;;18.80;92.60;;;;;;4972438;28;20034;-75
2021/10/03 00:47:36;;;;;;;8.05;3.55;;;18.80;92.60;;;;;;4972126;28;20268;-74
2021/10/03 00:50:03;;;;;;;9.18;3.92;;;18.90;92.50;;;;;;4972463;28;20531;-75
2021/10/03 00:52:28;;;;;;;5.10;3.47;;;18.90;92.50;;;;;;4971987;28;20062;-74
2021/10/03 00:54:54;;;;;;;4.90;3.72;;;19.00;92.50;;;;;;4971538;28;20120;-74
2021/10/03 00:57:19;;;;;;;7.78;3.55;;;19.00;92.40;;;;;;4973406;28;20039;-75
2021/10/03 00:59:45;;;;;;;5.35;3.13;;;19.00;92.30;;;;;;4975595;28;20038;-73
2021/10/03 01:02:11;;;;;;;5.80;3.67;;;19.00;92.30;;;;;;4975556;28;20039;-75
2021/10/03 01:04:36;;;;;;;6.78;3.35;;;19.10;92.30;;;;;;4975420;28;20481;-76
2021/10/03 01:07:03;;;;;;;7.78;3.63;;;19.10;92.20;;;;;;4975954;28;20137;-75
2021/10/03 01:09:29;;;;;;;8.30;3.53;;;19.10;92.00;;;;;;4975171;28;20078;-75
2021/10/03 01:11:54;;;;;;;7.55;3.45;;;19.20;92.00;;;;;;4975146;28;20074;-75
2021/10/03 01:14:20;;;;;;;5.82;3.53;;;19.30;92.00;;;;;;4975395;28;20093;-75
2021/10/03 01:16:47;;;;;;;5.07;3.60;;;19.30;91.90;;;;;;4975009;28;20423;-75
2021/10/03 01:19:13;;;;;;;5.20;3.33;;;19.30;91.70;;;;;;4975255;28;20110;-74
2021/10/03 01:21:45;;;;;;;4.70;3.22;;;19.40;91.70;;;;;;4975697;28;20042;-75
2021/10/03 01:24:11;;;;;;;4.25;3.20;;;19.40;91.60;;;;;;4975118;28;20621;-75
2021/10/03 01:26:37;;;;;;;5.32;3.55;;;19.40;91.50;;;;;;4973874;28;20121;-75
2021/10/03 01:29:03;;;;;;;5.05;3.47;;;19.40;91.40;;;;;;4974028;28;20065;-75
2021/10/03 01:31:29;;;;;;;4.80;3.28;;;19.50;91.40;;;;;;4974746;28;20450;-75
2021/10/03 01:33:57;;;;;;;6.03;4.07;;;19.50;91.40;;;;;;4975439;28;20102;-76
2021/10/03 01:36:23;;;;;;;4.43;3.17;;;19.50;91.40;;;;;;4987267;28;20487;-76
2021/10/03 01:38:49;;;;;;;8.40;3.72;;;19.60;91.30;;;;;;4994254;28;20026;-76
2021/10/03 01:41:14;;;;;;;9.13;4.05;;;19.60;91.20;;;;;;4994389;28;20030;-77
2021/10/03 01:43:40;;;;;;;10.10;3.92;;;19.60;91.20;;;;;;4994022;28;20457;-76
2021/10/03 01:46:06;;;;;;;7.65;4.38;;;19.60;91.20;;;;;;4994276;28;20026;-76
2021/10/03 01:48:32;;;;;;;8.30;3.75;;;19.60;91.10;;;;;;4994661;28;20088;-75
2021/10/03 01:51:04;;;;;;;6.13;3.60;;;19.60;91.30;;;;;;4994259;28;20034;-76
2021/10/03 01:53:51;;;;;;;4.90;2.95;;;19.70;91.00;;;;;;4993937;28;20023;-76
2021/10/03 01:56:18;;;;;;;5.90;3.42;;;19.70;90.90;;;;;;4993889;28;20397;-76
2021/10/03 01:58:51;;;;;;;5.00;3.23;;;19.80;90.80;;;;;;4993780;28;20435;-76
2021/10/03 02:01:26;;;;;;;4.70;3.00;;;19.80;90.80;;;;;;4993942;28;20033;-76
2021/10/03 02:03:53;;;;;;;4.43;2.95;;;19.80;90.80;;;;;;4994090;28;20022;-75
2021/10/03 02:06:20;;;;;;;10.52;3.50;;;19.80;90.80;;;;;;4993597;28;20103;-75
2021/10/03 02:08:52;;;;;;;4.20;3.20;;;19.80;90.80;;;;;;4992724;28;20101;-76
2021/10/03 02:11:18;;;;;;;5.05;3.28;;;19.80;90.90;;;;;;4993594;28;20042;-75
2021/10/03 02:13:44;;;;;;;4.20;3.10;;;19.80;90.90;;;;;;4993232;28;20034;-74
2021/10/03 02:16:09;;;;;;;4.65;3.10;;;19.80;91.00;;;;;;4993715;28;20114;-75
2021/10/03 02:18:39;;;;;;;8.98;3.38;;;19.70;91.00;;;;;;4993910;28;20508;-75
2021/10/03 02:21:07;;;;;;;9.02;3.50;;;19.70;91.00;;;;;;4993526;28;20034;-76
2021/10/03 02:23:34;;;;;;;;;;;19.70;91.10;;;;;;4993758;28;20077;-75
2021/10/03 02:26:00;;;;;;;7.45;3.10;;;19.70;91.10;;;;;;4993377;28;20315;-76
2021/10/03 02:28:27;;;;;;;7.22;3.00;;;19.70;91.10;;;;;;4993381;28;20483;-75
2021/10/03 02:30:56;;;;;;;5.95;2.88;;;19.70;91.10;;;;;;4993913;28;20105;-75
2021/10/03 02:33:22;;;;;;;7.30;3.00;;;19.70;91.10;;;;;;4992404;28;20045;-75
2021/10/03 02:35:48;;;;;;;8.02;3.75;;;19.70;91.10;;;;;;4993048;28;20042;-74
2021/10/03 02:38:16;;;;;;;8.48;3.50;;;19.70;91.00;;;;;;4993260;28;20068;-76
2021/10/03 02:40:43;;;;;;;6.10;3.42;;;19.70;91.00;;;;;;4992814;28;20034;-74
2021/10/03 02:43:10;;;;;;;4.47;3.33;;;19.70;91.00;;;;;;4993265;28;20041;-76
2021/10/03 02:45:40;;;;;;;5.57;2.92;;;19.70;91.00;;;;;;4993562;28;20029;-75
2021/10/03 02:48:05;;;;;;;6.05;3.10;;;19.70;90.80;;;;;;4993366;28;20034;-73
2021/10/03 02:50:31;;;;;;;4.70;3.55;;;19.70;90.80;;;;;;4992987;28;20042;-75
2021/10/03 02:52:57;;;;;;;8.50;3.85;;;19.70;90.80;;;;;;4992990;28;20044;-75
2021/10/03 02:55:23;;;;;;;5.75;3.08;;;19.70;90.80;;;;;;4992830;28;20041;-75
2021/10/03 02:57:49;;;;;;;6.07;3.38;;;19.70;90.80;;;;;;4993340;28;20105;-76
2021/10/03 03:00:15;;;;;;;9.07;3.42;;;19.70;90.70;;;;;;4992910;28;20125;-76
2021/10/03 03:02:41;;;;;;;6.13;2.90;;;19.70;90.70;;;;;;4992839;28;20419;-76
2021/10/03 03:05:10;;;;;;;4.68;3.35;;;19.70;90.70;;;;;;4991758;28;20580;-75
2021/10/03 03:07:37;;;;;;;4.18;3.10;;;19.80;90.70;;;;;;4991329;28;20030;-76
2021/10/03 03:10:05;;;;;;;6.30;3.35;;;19.70;90.70;;;;;;4992659;28;20487;-74
2021/10/03 03:12:31;;;;;;;5.20;3.25;;;19.80;90.70;;;;;;4992446;28;20062;-74
2021/10/03 03:14:56;;;;;;;10.20;3.08;;;19.80;90.70;;;;;;4992502;28;20038;-74
2021/10/03 03:17:22;;;;;;;8.65;3.30;;;19.80;90.60;;;;;;4991485;28;20042;-75
2021/10/03 03:19:48;;;;;;;5.72;3.40;;;19.80;90.90;;;;;;4992155;28;20045;-75
2021/10/03 03:22:14;;;;;;;5.38;2.92;;;19.80;90.60;;;;;;4991386;28;20125;-74
2021/10/03 03:24:40;;;;;;;5.28;2.70;;;19.80;90.60;;;;;;4992937;28;20034;-75
2021/10/03 03:27:08;;;;;;;4.68;2.72;;;19.80;90.50;;;;;;4991198;28;20519;-74
2021/10/03 03:29:34;;;;;;;3.95;2.80;;;19.90;90.50;;;;;;4992433;28;20457;-75
2021/10/03 03:32:00;;;;;;;4.82;3.17;;;19.90;90.40;;;;;;4992175;28;20465;-74
2021/10/03 03:34:27;;;;;;;4.55;2.83;;;20.00;90.50;;;;;;4992211;28;20049;-74
2021/10/03 03:36:52;;;;;;;4.85;2.63;;;19.90;90.40;;;;;;4992539;28;20034;-75
2021/10/03 03:39:18;;;;;;;5.00;2.60;;;19.90;90.50;;;;;;4992100;28;20027;-75
2021/10/03 03:41:44;;;;;;;5.22;2.70;;;20.00;90.40;;;;;;4992125;28;20497;-75
2021/10/03 03:44:09;;;;;;;3.55;2.70;;;20.00;90.40;;;;;;4992139;28;20373;-74
2021/10/03 03:46:35;;;;;;;9.35;2.78;;;20.00;90.40;;;;;;4992091;28;20034;-75
2021/10/03 03:49:00;;;;;;;4.32;2.95;;;20.00;90.40;;;;;;4991734;28;20412;-74
2021/10/03 03:51:26;;;;;;;8.93;2.78;;;20.00;90.40;;;;;;4992163;28;20100;-75
2021/10/03 03:53:51;;;;;;;7.47;2.83;;;20.10;90.40;;;;;;4991986;28;20037;-75
2021/10/03 03:56:17;;;;;;;4.50;2.60;;;20.10;90.30;;;;;;4992174;28;20030;-75
2021/10/03 03:58:43;;;;;;;4.90;2.80;;;20.10;90.20;;;;;;4991979;28;20023;-75
2021/10/03 04:01:08;;;;;;;3.92;2.83;;;20.10;90.20;;;;;;4992164;28;20077;-74
2021/10/03 04:03:34;;;;;;;4.05;2.50;;;20.10;90.20;;;;;;4992394;28;20421;-75
2021/10/03 04:05:59;;;;;;;3.92;2.70;;;20.20;90.20;;;;;;4992066;28;20368;-76
2021/10/03 04:08:25;;;;;;;4.38;3.05;;;20.20;90.20;;;;;;4991899;28;20420;-74
2021/10/03 04:10:51;;;;;;;6.63;3.33;;;20.20;90.20;;;;;;4991823;28;20046;-74
2021/10/03 04:13:18;;;;;;;7.40;3.15;;;20.20;90.20;;;;;;4991873;28;20042;-74
2021/10/03 04:15:44;;;;;;;4.90;2.80;;;20.20;90.20;;;;;;4992052;28;20027;-75
2021/10/03 04:18:10;;;;;;;3.72;2.63;;;20.30;90.30;;;;;;4991805;28;20046;-75
2021/10/03 04:20:36;;;;;;;5.60;2.67;;;20.30;90.20;;;;;;4991643;28;20031;-75
2021/10/03 04:23:01;;;;;;;4.78;3.20;;;20.30;90.20;;;;;;4992182;28;20073;-74
2021/10/03 04:25:27;;;;;;;6.53;2.65;;;20.30;90.30;;;;;;4992207;28;20057;-74
2021/10/03 04:27:53;;;;;;;4.18;2.90;;;20.40;90.30;;;;;;4992349;28;20356;-75
2021/10/03 04:30:18;;;;;;;5.65;3.42;;;20.40;90.40;;;;;;4992228;28;20465;-73
2021/10/03 04:32:44;;;;;;;8.13;3.35;;;20.40;90.40;;;;;;4993805;28;20027;-76
2021/10/03 04:35:09;;;;;;;4.97;3.17;;;20.40;90.30;;;;;;4995303;28;20073;-75
2021/10/03 04:37:35;;;;;;;4.63;2.83;;;20.40;90.40;;;;;;4995568;28;20038;-75
2021/10/03 04:40:00;;;;;;;6.35;3.08;;;20.40;90.40;;;;;;4994658;28;20034;-74
2021/10/03 04:42:26;;;;;;;6.22;3.05;;;20.40;90.40;;;;;;4995693;28;20065;-76
2021/10/03 04:44:52;;;;;;;14.88;3.25;;;20.40;90.40;;;;;;4995275;28;20038;-74
2021/10/03 04:47:17;;;;;;;4.07;2.80;;;20.40;90.30;;;;;;4995367;28;20022;-74
2021/10/03 04:49:43;;;;;;;3.83;2.95;;;20.40;90.30;;;;;;4995168;28;20031;-75
2021/10/03 04:52:09;;;;;;;9.00;3.10;;;20.50;90.30;;;;;;4995122;28;20036;-76
2021/10/03 04:54:34;;;;;;;8.40;2.80;;;20.50;90.30;;;;;;4995629;28;20053;-75
2021/10/03 04:57:00;;;;;;;3.97;2.95;;;20.50;90.30;;;;;;4995146;28;20445;-76
2021/10/03 04:59:25;;;;;;;4.43;2.97;;;20.50;90.30;;;;;;4995139;28;20503;-76
2021/10/03 05:01:51;;;;;;;5.85;3.22;;;20.50;90.20;;;;;;4995193;28;20294;-75
2021/10/03 05:04:17;;;;;;;5.45;2.92;;;20.50;90.20;;;;;;4994819;28;20453;-73
2021/10/03 05:06:42;;;;;;;5.25;3.30;;;20.50;90.20;;;;;;4995572;28;20193;-76
2021/10/03 05:09:08;;;;;;;4.57;2.55;;;20.50;90.20;;;;;;4994800;28;20484;-76
2021/10/03 05:11:34;;;;;;;5.43;3.10;;;20.50;90.20;;;;;;4994789;28;20042;-76
2021/10/03 05:14:05;;;;;;;7.97;2.92;;;20.50;90.20;;;;;;4994602;28;20069;-76
2021/10/03 05:16:31;;;;;;;2.83;2.42;;;20.50;90.20;;;;;;4994892;28;20034;-75
2021/10/03 05:18:58;;;;;;;5.05;3.05;;;20.50;90.20;;;;;;4995046;28;20030;-75
2021/10/03 05:21:23;;;;;;;6.63;3.03;;;20.50;90.20;;;;;;4994673;28;20164;-75
2021/10/03 05:23:49;;;;;;;8.57;3.60;;;20.40;90.20;;;;;;4994701;28;20106;-75
2021/10/03 05:26:15;;;;;;;6.38;3.03;;;20.40;90.20;;;;;;4994618;28;20441;-75
2021/10/03 05:28:40;;;;;;;5.45;3.08;;;20.40;90.20;;;;;;4994657;28;20049;-75
2021/10/03 05:31:06;;;;;;;5.93;3.08;;;20.40;90.20;;;;;;4994229;28;20022;-74
2021/10/03 05:33:32;;;;;;;4.18;2.65;;;20.40;90.20;;;;;;4995028;28;20037;-76
2021/10/03 05:35:59;;;;;;;8.52;3.70;;;20.40;90.20;;;;;;4994476;28;20034;-75
2021/10/03 05:38:25;;;;;;;9.13;3.25;;;20.40;90.10;;;;;;4993271;28;20053;-75
2021/10/03 05:40:50;;;;;;;4.25;3.03;;;20.40;90.10;;;;;;4994337;28;20042;-76
2021/10/03 05:43:16;;;;;;;5.10;3.15;;;20.30;90.10;;;;;;4993977;28;20023;-76
2021/10/03 05:45:42;;;;;;;6.22;2.72;;;20.30;90.00;;;;;;4994781;28;20045;-75
2021/10/03 05:48:07;;;;;;;7.97;3.53;;;20.40;90.00;;;;;;4994106;28;20089;-75
2021/10/03 05:50:33;;;;;;;4.30;3.17;;;20.40;90.00;;;;;;4994063;28;20416;-76
2021/10/03 05:52:59;;;;;;;5.30;3.05;;;20.30;90.00;;;;;;4994184;28;20495;-76
2021/10/03 05:55:25;;;;;;;6.53;3.28;;;20.30;90.00;;;;;;4994137;28;20441;-76
2021/10/03 05:57:50;;;;;;;7.40;3.13;;;20.30;90.00;;;;;;4993054;28;20044;-75
2021/10/03 06:00:16;;;;;;;5.75;3.55;;;20.30;90.00;;;;;;4993901;28;20027;-76
2021/10/03 06:02:42;;;;;;;6.32;2.90;;;20.30;90.00;;;;;;4994132;28;20026;-76
2021/10/03 06:05:07;;;;;;;5.25;3.42;;;20.30;90.00;;;;;;4993890;28;20138;-75
2021/10/03 06:07:33;;;;;;;7.45;3.20;;;20.20;90.10;;;;;;4993850;28;20383;-76
2021/10/03 06:09:59;;;;;;;5.35;2.65;;;20.20;90.10;;;;;;4994035;28;20050;-75
2021/10/03 06:12:25;;;;;;;7.60;4.03;;;20.20;90.10;;;;;;4993594;28;20034;-75
2021/10/03 06:14:50;;;;;;;9.50;5.00;;;20.20;90.00;;;;;;4993764;28;20042;-76
2021/10/03 06:17:16;;;;;;;5.70;3.95;;;20.20;90.00;;;;;;4992327;28;20346;-76
2021/10/03 06:19:42;;;;;;;4.68;2.95;;;20.20;90.10;;;;;;4993674;28;20129;-75
2021/10/03 06:22:07;;;;;;;4.78;3.22;;;20.20;90.00;;;;;;4990169;28;20058;-75
2021/10/03 06:24:33;;;;;;;10.02;4.45;;;20.20;90.00;;;;;;4994322;28;20029;-76
2021/10/03 06:26:59;;;;;;;4.32;2.70;;;20.30;90.10;;;;;;4993552;28;20034;-74
2021/10/03 06:29:24;;;;;;;4.22;2.75;;;20.20;90.10;;;;;;4993505;28;20034;-75
2021/10/03 06:31:50;;;;;;;5.78;3.25;;;20.20;90.10;;;;;;4993570;28;20485;-76
2021/10/03 06:34:15;;;;;;;7.85;3.28;;;20.20;90.00;;;;;;4993327;28;20543;-76
2021/10/03 06:36:41;;;;;;;3.95;2.83;;;20.30;90.10;;;;;;4993725;28;20022;-76
2021/10/03 06:39:07;;;;;;;5.57;2.83;;;20.30;90.10;;;;;;4993676;28;20040;-75
2021/10/03 06:41:32;;;;;;;7.95;4.72;;;20.30;90.00;;;;;;4993689;28;20072;-76
2021/10/03 06:43:58;;;;;;;5.90;4.07;;;20.30;90.00;;;;;;4993268;28;20549;-75
2021/10/03 06:46:23;;;;;;;7.85;3.60;;;20.20;90.00;;;;;;4992373;28;20026;-75
2021/10/03 06:48:49;;;;;;;5.13;2.97;;;20.30;90.00;;;;;;4993908;28;20025;-76
2021/10/03 06:51:15;;;;;;;4.78;3.20;;;20.30;90.00;;;;;;4992659;28;20429;-75
2021/10/03 06:53:41;;;;;;;5.55;3.15;;;20.30;89.80;;;;;;4992834;28;20318;-75
2021/10/03 06:56:08;;;;;;;5.72;2.85;;;20.30;89.50;;;;;;4992408;28;20042;-75
2021/10/03 06:58:37;;;;;;;4.85;2.88;;;20.30;89.60;;;;;;4991580;28;20049;-75
2021/10/03 07:01:04;;;;;;;4.57;3.13;;;20.30;89.60;;;;;;4992112;28;20523;-75
2021/10/03 07:03:30;;;;;;;6.55;3.47;;;20.30;89.70;;;;;;4992803;28;20039;-74
2021/10/03 07:05:56;;;;;;;4.45;3.00;;;20.30;89.70;;;;;;4991521;28;20026;-75
2021/10/03 07:08:21;;;;;;;3.45;2.60;;;20.40;89.80;;;;;;4992469;28;20065;-72
2021/10/03 07:10:47;;;;;;;4.35;3.08;;;20.30;89.70;;;;;;4992045;28;20046;-71
2021/10/03 07:13:13;;;;;;;5.50;3.20;;;20.30;89.90;;;;;;4991802;28;20592;-74
2021/10/03 07:15:38;;;;;;;7.20;4.75;;;20.30;89.90;;;;;;4992418;28;20092;-70
2021/10/03 07:18:05;;;;;;;7.57;3.22;;;20.30;90.00;;;;;;4991960;28;20045;-71
2021/10/03 07:20:31;;;;;;;4.93;2.90;;;20.30;89.80;;;;;;4992060;28;20026;-73
2021/10/03 07:22:56;;;;;;;3.35;2.90;;;20.30;90.00;;;;;;4991839;28;20031;-72
2021/10/03 07:25:23;;;;;;;6.68;2.90;;;20.30;89.80;;;;;;4992020;28;20512;-71
2021/10/03 07:27:48;;;;;;;7.47;3.33;;;20.30;90.00;;;;;;4991371;28;20045;-70
2021/10/03 07:30:15;;;;;;;8.18;3.20;;;20.40;90.10;;;;;;4991811;28;20034;-71
2021/10/03 07:32:41;;;;;;;4.30;3.58;;;20.40;90.10;;;;;;4992059;28;20030;-70
2021/10/03 07:35:08;;;;;;;5.10;2.78;;;20.40;90.10;;;;;;4991949;28;20380;-71
2021/10/03 07:37:33;;;;;;;8.93;3.13;;;20.30;90.00;;;;;;4991724;28;20038;-70
2021/10/03 07:39:59;;;;;;;6.05;3.03;;;20.40;90.10;;;;;;4992368;28;20041;-70
2021/10/03 07:42:25;;;;;;;4.63;3.20;;;20.40;90.10;;;;;;4991813;28;20447;-68
2021/10/03 07:44:50;;;;;;;6.25;2.45;;;20.40;90.20;;;;;;4991791;28;20129;-70
2021/10/03 07:47:16;;;;;;;5.20;2.80;;;20.40;89.90;;;;;;4991815;28;20118;-71
2021/10/03 07:49:41;;;;;;;3.58;2.75;;;20.40;89.50;;;;;;4991794;28;20038;-69
2021/10/03 07:52:07;;;;;;;5.07;2.83;;;20.40;89.50;;;;;;4991458;28;20145;-70
2021/10/03 07:54:33;;;;;;;5.00;2.85;;;20.40;89.40;;;;;;4992109;28;20059;-71
2021/10/03 07:56:58;;;;;;;4.50;3.10;;;20.40;89.40;;;;;;4991569;28;20030;-71
2021/10/03 07:59:24;;;;;;;4.63;2.90;;;20.40;89.50;;;;;;4991697;28;20393;-70
2021/10/03 08:01:49;;;;;;;3.85;2.65;;;20.40;89.60;;;;;;4991569;28;20030;-71
2021/10/03 08:04:15;;;;;;;8.48;2.97;;;20.40;89.10;;;;;;4991590;28;20408;-71
2021/10/03 08:06:41;;;;;;;4.78;2.65;;;20.40;89.40;;;;;;4991516;28;20031;-70
2021/10/03 08:09:07;;;;;;;4.18;2.80;;;20.40;89.30;;;;;;4995521;28;20112;-70
2021/10/03 08:11:32;;;;;;;5.95;2.92;;;20.30;89.40;;;;;;4992490;28;20117;-69
2021/10/03 08:13:58;;;;;;;3.25;2.35;;;20.30;89.40;;;;;;4995023;28;20069;-69
2021/10/03 08:16:23;;;;;;;5.60;2.60;;;20.20;89.10;;;;;;4995387;28;20097;-70
2021/10/03 08:18:49;;;;;;;5.00;2.60;;;20.20;89.20;;;;;;4995820;28;20133;-69
2021/10/03 08:21:16;;;;;;;3.08;2.30;;;20.20;89.00;;;;;;4993981;28;20039;-70
2021/10/03 08:23:42;;;;;;;5.78;2.85;;;20.10;89.10;;;;;;4995168;28;20534;-71
2021/10/03 08:26:07;;;;;;;4.30;2.90;;;20.10;89.30;;;;;;4994674;28;20129;-70
2021/10/03 08:28:33;;;;;;;2.75;2.20;;;20.10;89.10;;;;;;4994766;28;20116;-71
2021/10/03 08:30:59;;;;;;;2.85;2.45;;;20.10;89.00;;;;;;4995459;28;20027;-70
2021/10/03 08:33:25;;;;;;;16.48;2.85;;;20.10;88.90;;;;;;4994877;28;20034;-70
2021/10/03 08:35:50;;;;;;;6.05;2.45;;;20.10;88.80;;;;;;4994643;28;20511;-69
2021/10/03 08:38:16;;;;;;;3.05;1.98;;;20.10;88.80;;;;;;4994610;28;20046;-72
2021/10/03 08:40:42;;;;;;;2.25;2.03;;;20.10;88.70;;;;;;4995380;28;20106;-72
2021/10/03 08:43:10;;;;;;;4.50;2.95;;;20.10;88.80;;;;;;4995136;28;20084;-73
2021/10/03 08:45:42;;;;;;;8.10;4.78;;;20.10;88.60;;;;;;4995747;28;20404;-72
2021/10/03 08:48:12;;;;;;;4.18;2.72;;;20.10;88.40;;;;;;4995444;28;20058;-73
2021/10/03 08:50:38;;;;;;;5.97;3.25;;;20.10;88.60;;;;;;4994124;28;20027;-73
2021/10/03 08:53:03;;;;;;;4.68;2.50;;;20.10;88.50;;;;;;4995181;28;20477;-73
2021/10/03 08:55:29;;;;;;;3.50;2.45;;;20.10;88.50;;;;;;4994242;28;20373;-72
2021/10/03 08:57:54;;;;;;;3.80;2.30;;;20.10;88.50;;;;;;4995436;28;20061;-73
2021/10/03 09:00:22;;;;;;;4.55;2.35;;;20.10;88.40;;;;;;4995088;28;20046;-72
2021/10/03 09:03:04;;;;;;;6.18;4.13;;;20.10;88.10;;;;;;4994994;28;20114;-73
2021/10/03 09:05:38;;;;;;;6.88;2.42;;;20.20;88.20;;;;;;4995050;28;20137;-73
2021/10/03 09:08:11;;;;;;;5.18;2.83;;;20.10;88.40;;;;;;4994858;28;20030;-73
2021/10/03 09:10:48;;;;;;;3.33;2.28;;;20.20;88.80;;;;;;4994459;28;20061;-70
2021/10/03 09:13:14;;;;;;;3.65;2.20;;;20.20;89.20;;;;;;4993245;28;20088;-70
2021/10/03 09:15:40;;;;;;;5.43;2.35;;;20.30;89.40;;;;;;4994950;28;20519;-70
2021/10/03 09:18:07;;;;;;;3.47;2.33;;;20.20;89.10;;;;;;4994132;28;20125;-72
2021/10/03 09:20:33;;;;;;;4.47;2.30;;;20.30;89.20;;;;;;4993410;28;20038;-72
2021/10/03 09:23:06;;;;;;;5.43;2.60;;;20.30;88.70;;;;;;4994323;28;20046;-72
2021/10/03 09:25:47;;;;;;;3.85;2.35;;;20.30;88.80;;;;;;4994351;28;20104;-72
2021/10/03 09:28:25;;;;;;;4.10;2.35;;;20.30;88.60;;;;;;4994553;28;20081;-71
2021/10/03 09:31:00;;;;;;;8.95;2.60;;;20.30;88.50;;;;;;4994379;28;20026;-73
2021/10/03 09:33:53;;;;;;;8.85;4.88;;;20.40;88.60;;;;;;4993353;28;20365;-69
2021/10/03 09:36:32;;;;;;;4.40;2.63;;;20.40;88.30;;;;;;4992805;28;20469;-73
2021/10/03 09:39:00;;;;;;;6.82;2.58;;;20.40;88.00;;;;;;4993119;28;20039;-72
2021/10/03 09:41:27;;;;;;;;;;;20.40;88.40;;;;;;4993509;28;20030;-72
2021/10/03 09:43:58;;;;;;;7.53;2.33;;;20.40;88.10;;;;;;4993084;28;19913;-71
2021/10/03 09:46:42;;;;;;;3.15;2.17;;;20.40;88.60;;;;;;4992739;28;20256;-72
2021/10/03 09:49:12;;;;;;;2.60;2.05;;;20.50;88.60;;;;;;4993074;28;20152;-72
2021/10/03 09:51:40;;;;;;;3.17;2.05;;;20.50;88.20;;;;;;4993349;28;20045;-73
2021/10/03 09:54:07;;;;;;;4.43;2.33;;;20.60;88.20;;;;;;4992946;28;20026;-73
2021/10/03 09:56:32;;;;;;;3.97;2.08;;;20.60;87.90;;;;;;4992807;28;20621;-73
2021/10/03 09:59:03;;;;;;;6.03;2.15;;;20.70;87.80;;;;;;4992660;28;20838;-74
2021/10/03 10:01:38;;;;;;;4.35;2.30;;;20.70;87.70;;;;;;4991897;28;20030;-73
2021/10/03 10:04:07;;;;;;;8.18;2.47;;;20.70;87.70;;;;;;4993228;28;20029;-73
2021/10/03 10:06:34;;;;;;;3.17;2.40;;;20.70;87.30;;;;;;4991815;28;20039;-74
2021/10/03 10:09:09;;;;;;;5.53;2.45;;;20.80;86.90;;;;;;4992615;28;20124;-72
2021/10/03 10:11:55;;;;;;;3.50;2.03;;;20.80;87.10;;;;;;4992392;28;20066;-74
2021/10/03 10:14:43;;;;;;;5.20;2.50;;;20.90;87.00;;;;;;4992524;28;20449;-73
2021/10/03 10:17:33;;;;;;;3.50;2.22;;;20.90;86.40;;;;;;4992573;28;20480;-73
2021/10/03 10:20:24;;;;;;;4.40;2.15;;;20.90;86.70;;;;;;4992194;28;20031;-73
2021/10/03 10:22:58;;;;;;;2.65;1.75;;;20.90;86.80;;;;;;4991547;28;20478;-73
2021/10/03 10:25:48;;;;;;;4.18;2.42;;;20.90;86.40;;;;;;4992197;28;20022;-73
2021/10/03 10:28:15;;;;;;;10.15;5.40;;;20.90;86.10;;;;;;4991320;28;20401;-72
2021/10/03 10:31:13;;;;;;;5.93;3.50;;;20.90;86.40;;;;;;4991587;28;20029;-74
2021/10/03 10:33:50;;;;;;;4.63;2.10;;;20.80;86.00;;;;;;4990908;28;20050;-74
2021/10/03 10:36:19;;;;;;;4.43;2.45;;;20.90;86.00;;;;;;4992199;28;20034;-73
2021/10/03 10:39:06;;;;;;;3.45;1.98;;;20.90;86.00;;;;;;4992191;28;20041;-73
2021/10/03 10:41:38;;;;;;;3.05;2.40;;;21.00;86.40;;;;;;4992026;28;20046;-74
2021/10/03 10:44:29;;;;;;;6.00;1.95;;;21.10;86.30;;;;;;4992366;28;20473;-73
2021/10/03 10:47:13;;;;;;;3.15;2.13;;;21.20;87.20;;;;;;4991890;28;20031;-73
2021/10/03 10:49:48;;;;;;;2.47;2.03;;;21.30;86.70;;;;;;4992010;28;20409;-73
2021/10/03 10:52:20;;;;;;;4.75;2.40;;;21.30;86.50;;;;;;4991866;28;20469;-73
2021/10/03 10:55:11;;;;;;;5.55;2.10;;;21.40;85.80;;;;;;4992190;28;20018;-73
2021/10/03 10:57:48;;;;;;;3.15;2.33;;;21.30;85.30;;;;;;4976843;28;20035;-73
2021/10/03 11:00:24;;;;;;;3.13;2.35;;;21.30;84.90;;;;;;4971578;28;20030;-73
2021/10/03 11:03:01;;;;;;;4.53;2.22;;;21.30;84.20;;;;;;4972387;28;20473;-72
2021/10/03 11:05:36;;;;;;;6.10;2.30;;;21.30;84.30;;;;;;4972590;28;20058;-74
2021/10/03 11:08:09;;;;;;;7.28;2.15;;;21.20;84.00;;;;;;4971271;28;20068;-72
2021/10/03 11:11:00;;;;;;;3.85;2.67;;;21.20;84.20;;;;;;4972160;28;20070;-70
2021/10/03 11:13:46;;;;;;;4.50;3.72;;;21.20;84.00;;;;;;4972208;28;21121;-71
2021/10/03 11:16:29;;;;;;;7.03;3.70;;;21.20;83.80;;;;;;4972744;28;20019;-72
2021/10/03 11:19:10;;;;;;;6.18;2.47;;;21.20;83.70;;;;;;4972740;28;20114;-72
2021/10/03 11:21:39;;;;;;;5.05;2.28;;;21.20;83.50;;;;;;4972202;28;20062;-72
2021/10/03 11:24:10;;;;;;;4.22;2.22;;;21.30;83.40;;;;;;4972186;28;20086;-71
2021/10/03 11:26:47;;;;;;;7.90;2.70;;;21.30;83.70;;;;;;4970469;28;20368;-71
2021/10/03 11:29:14;;;;;;;3.53;2.10;;;21.30;83.90;;;;;;4972152;28;20457;-72
2021/10/03 11:31:41;;;;;;;4.43;2.65;;;21.40;83.50;;;;;;4972062;28;20053;-71
2021/10/03 11:34:07;;;;;;;3.80;2.20;;;21.40;83.50;;;;;;4972348;28;20369;-72
2021/10/03 11:36:48;;;;;;;2.40;2.00;;;21.40;83.40;;;;;;4972294;28;20031;-73
2021/10/03 11:39:14;;;;;;;3.15;2.40;;;21.40;84.00;;;;;;4972038;28;20070;-72
2021/10/03 11:41:47;;;;;;;7.70;2.40;;;21.50;84.60;;;;;;4970458;28;20059;-72
2021/10/03 11:44:21;;;;;;;5.15;2.33;;;21.50;85.20;;;;;;4972105;28;20402;-73
2021/10/03 11:46:58;;;;;;;6.30;2.13;;;21.50;85.60;;;;;;4972217;28;20034;-72
2021/10/03 11:49:29;;;;;;;6.18;2.60;;;21.40;86.10;;;;;;4972044;28;20089;-72
2021/10/03 11:51:57;;;;;;;5.47;3.28;;;21.40;85.80;;;;;;4972117;28;20468;-72
2021/10/03 11:54:46;;;;;;;9.13;4.40;;;21.40;85.40;;;;;;4972035;28;20069;-72
2021/10/03 11:57:35;;;;;;;3.28;2.33;;;21.40;85.50;;;;;;4971441;28;20050;-72
2021/10/03 12:00:08;;;;;;;7.10;1.98;;;21.40;85.30;;;;;;4971710;28;20417;-72
2021/10/03 12:02:39;;;;;;;1.98;1.70;;;21.40;85.20;;;;;;4971741;28;20097;-72
2021/10/03 12:05:06;;;;;;;8.60;2.95;;;21.50;84.20;;;;;;4971759;28;20058;-72
2021/10/03 12:07:32;;;;;;;3.40;2.20;;;21.50;84.10;;;;;;4972001;28;20031;-72
2021/10/03 12:10:10;;;;;;;4.50;2.45;;;21.50;83.80;;;;;;4971433;28;20026;-73
2021/10/03 12:13:10;;;;;;;8.63;3.20;;;21.50;83.60;;;;;;4971614;28;20046;-71
2021/10/03 12:15:43;;;;;;;3.85;2.50;;;21.50;83.90;;;;;;4971454;28;20053;-76
2021/10/03 12:18:12;;;;;;;3.35;2.40;;;21.50;83.40;;;;;;4971328;28;20035;-73
2021/10/03 12:20:59;;;;;;;3.47;2.33;;;21.50;82.70;;;;;;4971260;28;20513;-73
2021/10/03 12:24:05;;;;;;;4.50;2.95;;;21.50;83.60;;;;;;4971355;28;20046;-72
2021/10/03 12:26:46;;;;;;;6.95;2.53;;;21.50;83.10;;;;;;4970286;28;20361;-72
2021/10/03 12:29:26;;;;;;;4.80;2.15;;;21.50;83.10;;;;;;4971343;28;20031;-71
2021/10/03 12:32:08;;;;;;;5.28;2.38;;;21.50;83.50;;;;;;4971442;28;20156;-74
2021/10/03 12:34:36;;;;;;;2.33;1.98;;;21.50;83.10;;;;;;4971387;28;20050;-72
2021/10/03 12:37:06;;;;;;;4.25;2.20;;;21.60;83.80;;;;;;4971757;28;20034;-72
2021/10/03 12:39:37;;;;;;;5.90;2.40;;;21.60;83.30;;;;;;4971314;28;20039;-73
2021/10/03 12:42:09;;;;;;;4.13;2.13;;;21.60;83.50;;;;;;4969798;28;20031;-72
2021/10/03 12:44:36;;;;;;;4.40;2.40;;;21.50;83.50;;;;;;4970986;28;20110;-71
2021/10/03 12:47:04;;;;;;;3.28;2.20;;;21.60;83.20;;;;;;4971165;28;20034;-72
2021/10/03 12:49:30;;;;;;;;;;;21.60;83.40;;;;;;4971748;28;20037;-72
2021/10/03 12:51:55;;;;;;;3.05;2.47;;;21.60;83.30;;;;;;4971198;28;19906;-71
2021/10/03 12:54:21;;;;;;;5.78;2.47;;;21.60;83.60;;;;;;4974194;28;20042;-72
2021/10/03 12:56:46;;;;;;;4.30;2.67;;;21.60;83.60;;;;;;4974770;28;20062;-72